sensor_id;sensor_type;location;lat;lon;timestamp;pressure;altitude;pressure_sealevel;temperature;humidity
62011;BME280;47967;51.756;10.174;2022-07-23T00:03:37;99990.44;;;14.91;96.30
62011;BME280;47967;51.756;10.174;2022-07-23T00:07:41;99987.19;;;15.01;95.92
62011;BME280;47967;51.756;10.174;2022-07-23T00:11:44;99968.41;;;14.99;96.12
62011;BME280;47967;51.756;10.174;2022-07-23T00:15:46;99976.31;;;15.01;96.17
62011;BME280;47967;51.756;10.174;2022-07-23T00:19:49;99971.19;;;14.93;96.12
62011;BME280;47967;51.756;10.174;2022-07-23T00:23:53;99952.91;;;14.81;96.81
62011;BME280;47967;51.756;10.174;2022-07-23T00:27:56;99946.25;;;14.77;97.16
62011;BME280;47967;51.756;10.174;2022-07-23T00:31:59;99947.75;;;14.73;97.35
62011;BME280;47967;51.756;10.174;2022-07-23T00:36:02;99935.22;;;14.72;97.95
62011;BME280;47967;51.756;10.174;2022-07-23T00:40:07;99939.69;;;14.60;98.46
62011;BME280;47967;51.756;10.174;2022-07-23T00:44:18;99957.72;;;14.54;99.55
62011;BME280;47967;51.756;10.174;2022-07-23T00:48:21;99956.22;;;14.58;99.71
62011;BME280;47967;51.756;10.174;2022-07-23T00:52:24;99938.56;;;14.74;99.21
62011;BME280;47967;51.756;10.174;2022-07-23T00:56:29;99928.06;;;14.78;98.60
62011;BME280;47967;51.756;10.174;2022-07-23T01:00:32;99908.38;;;14.82;98.12
62011;BME280;47967;51.756;10.174;2022-07-23T01:04:35;99915.63;;;14.88;97.30
62011;BME280;47967;51.756;10.174;2022-07-23T01:08:38;99912.00;;;14.76;97.41
62011;BME280;47967;51.756;10.174;2022-07-23T01:12:42;99917.19;;;14.52;98.11
62011;BME280;47967;51.756;10.174;2022-07-23T01:16:47;99901.25;;;14.37;99.34
62011;BME280;47967;51.756;10.174;2022-07-23T01:20:50;99886.66;;;14.32;100.00
62011;BME280;47967;51.756;10.174;2022-07-23T01:24:54;99885.94;;;14.24;100.00
62011;BME280;47967;51.756;10.174;2022-07-23T01:28:59;99882.59;;;14.22;100.00
62011;BME280;47967;51.756;10.174;2022-07-23T01:33:02;99879.03;;;14.22;100.00
62011;BME280;47967;51.756;10.174;2022-07-23T01:37:05;99893.97;;;14.38;100.00
62011;BME280;47967;51.756;10.174;2022-07-23T01:41:10;99884.06;;;14.44;100.00
62011;BME280;47967;51.756;10.174;2022-07-23T01:45:15;99881.63;;;14.35;100.00
62011;BME280;47967;51.756;10.174;2022-07-23T01:49:22;99865.03;;;14.25;100.00
62011;BME280;47967;51.756;10.174;2022-07-23T01:53:51;99871.91;;;14.28;100.00
62011;BME280;47967;51.756;10.174;2022-07-23T01:57:55;99876.72;;;14.25;100.00
62011;BME280;47967;51.756;10.174;2022-07-23T02:02:02;99883.41;;;14.23;100.00
62011;BME280;47967;51.756;10.174;2022-07-23T02:06:07;99887.63;;;14.19;100.00
62011;BME280;47967;51.756;10.174;2022-07-23T02:10:10;99893.28;;;14.17;100.00
62011;BME280;47967;51.756;10.174;2022-07-23T02:14:14;99896.38;;;14.21;100.00
62011;BME280;47967;51.756;10.174;2022-07-23T02:18:16;99881.09;;;14.27;100.00
62011;BME280;47967;51.756;10.174;2022-07-23T02:22:19;99874.19;;;14.31;100.00
62011;BME280;47967;51.756;10.174;2022-07-23T02:26:23;99868.44;;;14.39;100.00
62011;BME280;47967;51.756;10.174;2022-07-23T02:30:29;99868.84;;;14.43;100.00
62011;BME280;47967;51.756;10.174;2022-07-23T02:34:31;99879.31;;;14.39;100.00
62011;BME280;47967;51.756;10.174;2022-07-23T02:38:34;99882.88;;;14.39;100.00
62011;BME280;47967;51.756;10.174;2022-07-23T02:42:38;99889.06;;;14.47;100.00
62011;BME280;47967;51.756;10.174;2022-07-23T02:46:42;99911.19;;;14.50;99.93
62011;BME280;47967;51.756;10.174;2022-07-23T02:50:44;99919.47;;;14.55;99.66
62011;BME280;47967;51.756;10.174;2022-07-23T02:54:50;99931.78;;;14.58;99.83
62011;BME280;47967;51.756;10.174;2022-07-23T02:58:53;99918.66;;;14.55;99.73
62011;BME280;47967;51.756;10.174;2022-07-23T03:02:57;99934.59;;;14.45;99.93
62011;BME280;47967;51.756;10.174;2022-07-23T03:07:00;99929.84;;;14.40;100.00
62011;BME280;47967;51.756;10.174;2022-07-23T03:11:02;99931.97;;;14.38;100.00
62011;BME280;47967;51.756;10.174;2022-07-23T03:15:06;99918.00;;;14.34;100.00
62011;BME280;47967;51.756;10.174;2022-07-23T03:19:11;99916.53;;;14.32;100.00
62011;BME280;47967;51.756;10.174;2022-07-23T03:23:15;99909.47;;;14.31;100.00
62011;BME280;47967;51.756;10.174;2022-07-23T03:27:18;99906.34;;;14.27;100.00
62011;BME280;47967;51.756;10.174;2022-07-23T03:31:21;99895.31;;;14.22;100.00
62011;BME280;47967;51.756;10.174;2022-07-23T03:35:25;99898.25;;;14.20;100.00
62011;BME280;47967;51.756;10.174;2022-07-23T03:39:45;99912.44;;;14.22;100.00
62011;BME280;47967;51.756;10.174;2022-07-23T03:43:48;99910.78;;;14.21;100.00
62011;BME280;47967;51.756;10.174;2022-07-23T03:47:51;99907.63;;;14.24;100.00
62011;BME280;47967;51.756;10.174;2022-07-23T03:51:55;99906.78;;;14.24;100.00
62011;BME280;47967;51.756;10.174;2022-07-23T03:55:57;99907.19;;;14.28;100.00
62011;BME280;47967;51.756;10.174;2022-07-23T04:00:00;99898.00;;;14.29;99.95
62011;BME280;47967;51.756;10.174;2022-07-23T04:04:13;99907.56;;;14.31;99.75
62011;BME280;47967;51.756;10.174;2022-07-23T04:08:18;99906.75;;;14.31;99.52
62011;BME280;47967;51.756;10.174;2022-07-23T04:12:25;99913.16;;;14.36;99.13
62011;BME280;47967;51.756;10.174;2022-07-23T04:16:28;99918.09;;;14.46;99.13
62011;BME280;47967;51.756;10.174;2022-07-23T04:20:32;99912.22;;;14.49;98.93
62011;BME280;47967;51.756;10.174;2022-07-23T04:24:43;99898.00;;;14.54;99.06
62011;BME280;47967;51.756;10.174;2022-07-23T04:28:45;99894.38;;;14.60;98.90
62011;BME280;47967;51.756;10.174;2022-07-23T04:32:48;99854.09;;;14.57;98.56
62011;BME280;47967;51.756;10.174;2022-07-23T04:36:56;99859.47;;;14.64;98.55
62011;BME280;47967;51.756;10.174;2022-07-23T04:41:01;99870.75;;;14.61;98.08
62011;BME280;47967;51.756;10.174;2022-07-23T04:45:04;99884.34;;;14.61;97.81
62011;BME280;47967;51.756;10.174;2022-07-23T04:49:13;99905.50;;;14.52;97.88
62011;BME280;47967;51.756;10.174;2022-07-23T04:53:19;99911.34;;;14.55;97.64
62011;BME280;47967;51.756;10.174;2022-07-23T04:57:24;99909.56;;;14.68;96.51
62011;BME280;47967;51.756;10.174;2022-07-23T05:01:27;99907.34;;;14.83;95.91
62011;BME280;47967;51.756;10.174;2022-07-23T05:05:30;99909.31;;;15.13;95.10
62011;BME280;47967;51.756;10.174;2022-07-23T05:09:40;99913.38;;;15.41;94.70
62011;BME280;47967;51.756;10.174;2022-07-23T05:13:44;99911.84;;;15.76;93.13
62011;BME280;47967;51.756;10.174;2022-07-23T05:17:47;99905.06;;;15.85;90.72
62011;BME280;47967;51.756;10.174;2022-07-23T05:21:51;99903.13;;;15.74;90.72
62011;BME280;47967;51.756;10.174;2022-07-23T05:25:54;99910.22;;;15.75;90.11
62011;BME280;47967;51.756;10.174;2022-07-23T05:30:00;99896.91;;;15.85;88.67
62011;BME280;47967;51.756;10.174;2022-07-23T05:34:04;99899.88;;;15.83;88.38
62011;BME280;47967;51.756;10.174;2022-07-23T05:38:09;99899.91;;;15.77;89.34
62011;BME280;47967;51.756;10.174;2022-07-23T05:42:12;99897.53;;;15.68;89.91
62011;BME280;47967;51.756;10.174;2022-07-23T05:46:16;99899.66;;;15.66;91.45
62011;BME280;47967;51.756;10.174;2022-07-23T05:50:24;99888.66;;;15.73;91.89
62011;BME280;47967;51.756;10.174;2022-07-23T05:54:34;99893.50;;;15.90;90.68
62011;BME280;47967;51.756;10.174;2022-07-23T05:58:37;99903.69;;;16.06;89.60
62011;BME280;47967;51.756;10.174;2022-07-23T06:02:41;99908.41;;;15.99;89.13
62011;BME280;47967;51.756;10.174;2022-07-23T06:06:45;99900.41;;;16.16;89.06
62011;BME280;47967;51.756;10.174;2022-07-23T06:10:48;99905.66;;;16.41;87.64
62011;BME280;47967;51.756;10.174;2022-07-23T06:14:51;99918.13;;;16.49;86.41
62011;BME280;47967;51.756;10.174;2022-07-23T06:18:55;99929.00;;;16.49;85.69
62011;BME280;47967;51.756;10.174;2022-07-23T06:23:00;99922.25;;;16.40;85.42
62011;BME280;47967;51.756;10.174;2022-07-23T06:27:04;99928.50;;;16.28;84.73
62011;BME280;47967;51.756;10.174;2022-07-23T06:35:40;99928.31;;;15.99;87.39
62011;BME280;47967;51.756;10.174;2022-07-23T06:39:43;99929.50;;;16.04;87.81
62011;BME280;47967;51.756;10.174;2022-07-23T06:43:46;99926.34;;;16.19;86.64
62011;BME280;47967;51.756;10.174;2022-07-23T06:47:50;99920.22;;;16.35;84.62
62011;BME280;47967;51.756;10.174;2022-07-23T06:51:54;99919.41;;;16.46;83.78
62011;BME280;47967;51.756;10.174;2022-07-23T06:55:57;99930.19;;;16.77;83.00
62011;BME280;47967;51.756;10.174;2022-07-23T06:59:59;99926.66;;;17.00;82.88
62011;BME280;47967;51.756;10.174;2022-07-23T07:04:02;99934.97;;;16.93;80.68
62011;BME280;47967;51.756;10.174;2022-07-23T07:08:06;99940.16;;;17.07;79.91
62011;BME280;47967;51.756;10.174;2022-07-23T07:12:09;99934.81;;;17.12;79.55
62011;BME280;47967;51.756;10.174;2022-07-23T07:16:13;99940.50;;;17.22;76.35
62011;BME280;47967;51.756;10.174;2022-07-23T07:20:16;99943.69;;;17.31;73.44
62011;BME280;47967;51.756;10.174;2022-07-23T07:24:20;99957.78;;;17.28;72.30
62011;BME280;47967;51.756;10.174;2022-07-23T07:28:25;99957.16;;;17.50;73.12
62011;BME280;47967;51.756;10.174;2022-07-23T07:32:27;99979.06;;;17.67;72.29
62011;BME280;47967;51.756;10.174;2022-07-23T07:36:51;99976.09;;;17.56;72.09
62011;BME280;47967;51.756;10.174;2022-07-23T07:40:54;99975.78;;;17.53;71.63
62011;BME280;47967;51.756;10.174;2022-07-23T07:44:57;99977.41;;;17.66;73.74
62011;BME280;47967;51.756;10.174;2022-07-23T07:49:00;99983.34;;;17.91;73.41
62011;BME280;47967;51.756;10.174;2022-07-23T07:53:02;99993.38;;;17.86;72.86
62011;BME280;47967;51.756;10.174;2022-07-23T07:57:06;100009.50;;;17.87;72.95
62011;BME280;47967;51.756;10.174;2022-07-23T08:01:09;100006.38;;;18.24;71.42
62011;BME280;47967;51.756;10.174;2022-07-23T08:05:12;99999.91;;;18.77;67.63
62011;BME280;47967;51.756;10.174;2022-07-23T08:09:14;100011.31;;;19.25;67.05
62011;BME280;47967;51.756;10.174;2022-07-23T08:13:18;100010.56;;;18.61;67.17
62011;BME280;47967;51.756;10.174;2022-07-23T08:17:21;100006.94;;;18.55;66.81
62011;BME280;47967;51.756;10.174;2022-07-23T08:21:24;100015.31;;;18.83;66.46
62011;BME280;47967;51.756;10.174;2022-07-23T08:25:28;100017.31;;;19.44;65.66
62011;BME280;47967;51.756;10.174;2022-07-23T08:29:32;100024.25;;;19.29;65.30
62011;BME280;47967;51.756;10.174;2022-07-23T08:33:35;100018.44;;;19.26;67.21
62011;BME280;47967;51.756;10.174;2022-07-23T08:37:37;100025.91;;;19.52;66.15
62011;BME280;47967;51.756;10.174;2022-07-23T08:41:40;100026.25;;;19.78;63.93
62011;BME280;47967;51.756;10.174;2022-07-23T08:45:46;100021.69;;;19.62;64.22
62011;BME280;47967;51.756;10.174;2022-07-23T08:49:50;100030.53;;;19.69;64.16
62011;BME280;47967;51.756;10.174;2022-07-23T08:53:56;100032.22;;;19.92;63.34
62011;BME280;47967;51.756;10.174;2022-07-23T08:57:59;100046.00;;;19.58;61.51
62011;BME280;47967;51.756;10.174;2022-07-23T09:02:03;100035.53;;;20.22;61.14
62011;BME280;47967;51.756;10.174;2022-07-23T09:06:06;100042.78;;;20.33;60.83
62011;BME280;47967;51.756;10.174;2022-07-23T09:10:10;100058.13;;;19.67;62.38
62011;BME280;47967;51.756;10.174;2022-07-23T09:14:13;100037.38;;;19.89;62.98
62011;BME280;47967;51.756;10.174;2022-07-23T09:18:17;100028.16;;;20.50;61.45
62011;BME280;47967;51.756;10.174;2022-07-23T09:22:22;100044.47;;;20.12;61.34
62011;BME280;47967;51.756;10.174;2022-07-23T09:26:32;100048.47;;;19.60;61.60
62011;BME280;47967;51.756;10.174;2022-07-23T09:30:35;100036.72;;;20.31;61.37
62011;BME280;47967;51.756;10.174;2022-07-23T09:34:49;100036.72;;;20.58;60.18
62011;BME280;47967;51.756;10.174;2022-07-23T09:38:51;100028.03;;;20.39;60.17
62011;BME280;47967;51.756;10.174;2022-07-23T09:42:54;100034.91;;;20.42;60.81
62011;BME280;47967;51.756;10.174;2022-07-23T09:46:58;100036.56;;;20.43;61.12
62011;BME280;47967;51.756;10.174;2022-07-23T09:51:03;100040.97;;;19.33;63.30
62011;BME280;47967;51.756;10.174;2022-07-23T09:55:07;100038.34;;;19.82;62.12
62011;BME280;47967;51.756;10.174;2022-07-23T09:59:11;100038.53;;;20.47;61.09
62011;BME280;47967;51.756;10.174;2022-07-23T10:03:13;100035.72;;;20.70;58.83
62011;BME280;47967;51.756;10.174;2022-07-23T10:07:41;100046.22;;;20.51;60.03
62011;BME280;47967;51.756;10.174;2022-07-23T10:12:12;100044.22;;;20.41;59.26
62011;BME280;47967;51.756;10.174;2022-07-23T10:16:33;100045.38;;;20.72;58.13
62011;BME280;47967;51.756;10.174;2022-07-23T10:20:37;100037.75;;;20.79;56.25
62011;BME280;47967;51.756;10.174;2022-07-23T10:24:43;100040.81;;;20.56;57.00
62011;BME280;47967;51.756;10.174;2022-07-23T10:29:10;100035.84;;;21.18;57.24
62011;BME280;47967;51.756;10.174;2022-07-23T10:33:23;100025.53;;;20.92;56.58
62011;BME280;47967;51.756;10.174;2022-07-23T10:37:34;100031.09;;;20.43;56.21
62011;BME280;47967;51.756;10.174;2022-07-23T10:41:40;100034.50;;;20.55;56.68
62011;BME280;47967;51.756;10.174;2022-07-23T10:45:42;100033.22;;;20.63;56.38
62011;BME280;47967;51.756;10.174;2022-07-23T10:49:47;100014.53;;;20.87;55.90
62011;BME280;47967;51.756;10.174;2022-07-23T10:53:54;100028.25;;;21.30;55.27
62011;BME280;47967;51.756;10.174;2022-07-23T10:57:59;100025.03;;;21.01;55.39
62011;BME280;47967;51.756;10.174;2022-07-23T11:02:20;100036.44;;;21.25;55.01
62011;BME280;47967;51.756;10.174;2022-07-23T11:06:23;100019.94;;;21.63;54.16
62011;BME280;47967;51.756;10.174;2022-07-23T11:10:32;100020.41;;;21.54;54.49
62011;BME280;47967;51.756;10.174;2022-07-23T11:14:59;100022.31;;;21.49;54.12
62011;BME280;47967;51.756;10.174;2022-07-23T11:19:06;100014.56;;;21.99;54.28
62011;BME280;47967;51.756;10.174;2022-07-23T11:23:09;100017.75;;;21.65;54.57
62011;BME280;47967;51.756;10.174;2022-07-23T11:27:11;100011.47;;;21.80;52.81
62011;BME280;47967;51.756;10.174;2022-07-23T11:31:18;100018.13;;;21.94;53.12
62011;BME280;47967;51.756;10.174;2022-07-23T11:35:23;100017.03;;;21.90;53.86
62011;BME280;47967;51.756;10.174;2022-07-23T11:39:28;100023.97;;;22.23;53.28
62011;BME280;47967;51.756;10.174;2022-07-23T11:43:31;100016.00;;;22.27;53.10
62011;BME280;47967;51.756;10.174;2022-07-23T11:47:35;100019.09;;;22.41;51.94
62011;BME280;47967;51.756;10.174;2022-07-23T11:51:37;100014.69;;;22.55;51.37
62011;BME280;47967;51.756;10.174;2022-07-23T11:55:40;100006.44;;;22.97;50.35
62011;BME280;47967;51.756;10.174;2022-07-23T11:59:43;100001.19;;;23.00;49.29
62011;BME280;47967;51.756;10.174;2022-07-23T12:03:50;100019.03;;;23.44;47.83
62011;BME280;47967;51.756;10.174;2022-07-23T12:07:55;100007.41;;;23.63;47.23
62011;BME280;47967;51.756;10.174;2022-07-23T12:11:59;99996.69;;;23.56;47.57
62011;BME280;47967;51.756;10.174;2022-07-23T12:16:02;100000.13;;;23.88;47.24
62011;BME280;47967;51.756;10.174;2022-07-23T12:20:09;100005.31;;;24.00;46.50
62011;BME280;47967;51.756;10.174;2022-07-23T12:24:14;99993.75;;;24.03;45.23
62011;BME280;47967;51.756;10.174;2022-07-23T12:28:18;99996.25;;;23.99;45.74
62011;BME280;47967;51.756;10.174;2022-07-23T12:32:22;100009.28;;;23.78;46.26
62011;BME280;47967;51.756;10.174;2022-07-23T12:36:37;100014.66;;;23.33;47.36
62011;BME280;47967;51.756;10.174;2022-07-23T12:40:45;100018.75;;;23.51;47.57
62011;BME280;47967;51.756;10.174;2022-07-23T12:45:07;99994.34;;;22.98;48.27
62011;BME280;47967;51.756;10.174;2022-07-23T12:49:25;99994.88;;;23.00;48.04
62011;BME280;47967;51.756;10.174;2022-07-23T12:53:39;100018.53;;;23.11;48.17
62011;BME280;47967;51.756;10.174;2022-07-23T12:57:45;100002.31;;;22.94;47.92
62011;BME280;47967;51.756;10.174;2022-07-23T13:01:54;100008.91;;;23.19;47.10
62011;BME280;47967;51.756;10.174;2022-07-23T13:06:00;100021.53;;;23.25;46.60
62011;BME280;47967;51.756;10.174;2022-07-23T13:10:04;100014.28;;;23.60;46.23
62011;BME280;47967;51.756;10.174;2022-07-23T13:14:07;100024.41;;;23.75;46.39
62011;BME280;47967;51.756;10.174;2022-07-23T13:18:10;100010.38;;;23.77;45.82
62011;BME280;47967;51.756;10.174;2022-07-23T13:22:12;100017.56;;;23.67;46.67
62011;BME280;47967;51.756;10.174;2022-07-23T13:26:16;100015.47;;;23.44;46.75
62011;BME280;47967;51.756;10.174;2022-07-23T13:30:19;100023.94;;;23.58;46.06
62011;BME280;47967;51.756;10.174;2022-07-23T13:34:25;100007.28;;;23.18;46.25
62011;BME280;47967;51.756;10.174;2022-07-23T13:38:28;100020.13;;;23.43;46.69
62011;BME280;47967;51.756;10.174;2022-07-23T13:42:32;100006.69;;;24.02;45.96
62011;BME280;47967;51.756;10.174;2022-07-23T13:46:34;100010.19;;;24.18;44.11
62011;BME280;47967;51.756;10.174;2022-07-23T13:50:37;100007.91;;;24.30;43.05
62011;BME280;47967;51.756;10.174;2022-07-23T13:54:40;100020.09;;;24.24;44.64
62011;BME280;47967;51.756;10.174;2022-07-23T13:58:44;99997.03;;;24.44;44.16
62011;BME280;47967;51.756;10.174;2022-07-23T14:02:47;99998.66;;;24.51;43.43
62011;BME280;47967;51.756;10.174;2022-07-23T14:06:51;100000.66;;;24.45;43.42
62011;BME280;47967;51.756;10.174;2022-07-23T14:10:55;99997.22;;;24.58;43.17
62011;BME280;47967;51.756;10.174;2022-07-23T14:15:01;100007.03;;;24.75;43.86
62011;BME280;47967;51.756;10.174;2022-07-23T14:19:04;99995.91;;;25.63;41.85
62011;BME280;47967;51.756;10.174;2022-07-23T14:23:07;100008.88;;;26.11;41.76
62011;BME280;47967;51.756;10.174;2022-07-23T14:27:13;100003.31;;;25.49;41.88
62011;BME280;47967;51.756;10.174;2022-07-23T14:31:17;99992.25;;;25.92;41.87
62011;BME280;47967;51.756;10.174;2022-07-23T14:35:21;100009.81;;;26.01;40.92
62011;BME280;47967;51.756;10.174;2022-07-23T14:39:25;99996.72;;;25.88;41.21
62011;BME280;47967;51.756;10.174;2022-07-23T14:43:27;100002.28;;;25.64;42.44
62011;BME280;47967;51.756;10.174;2022-07-23T14:47:31;100004.78;;;26.09;41.42
62011;BME280;47967;51.756;10.174;2022-07-23T14:51:35;100023.53;;;24.85;43.23
62011;BME280;47967;51.756;10.174;2022-07-23T14:55:37;99997.19;;;25.95;41.57
62011;BME280;47967;51.756;10.174;2022-07-23T14:59:40;100010.09;;;25.81;41.08
62011;BME280;47967;51.756;10.174;2022-07-23T15:03:45;100029.66;;;25.06;42.42
62011;BME280;47967;51.756;10.174;2022-07-23T15:07:48;100016.03;;;25.45;41.57
62011;BME280;47967;51.756;10.174;2022-07-23T15:11:51;99998.91;;;25.67;41.82
62011;BME280;47967;51.756;10.174;2022-07-23T15:15:54;100015.75;;;26.85;39.62
62011;BME280;47967;51.756;10.174;2022-07-23T15:19:58;100018.88;;;26.26;40.68
62011;BME280;47967;51.756;10.174;2022-07-23T15:24:01;100020.19;;;26.86;39.09
62011;BME280;47967;51.756;10.174;2022-07-23T15:28:04;100019.38;;;26.99;39.43
62011;BME280;47967;51.756;10.174;2022-07-23T15:32:09;100025.50;;;26.82;39.28
62011;BME280;47967;51.756;10.174;2022-07-23T15:36:16;100016.03;;;26.50;39.60
62011;BME280;47967;51.756;10.174;2022-07-23T15:40:20;100011.03;;;26.52;39.57
62011;BME280;47967;51.756;10.174;2022-07-23T15:44:23;100014.78;;;26.43;39.59
62011;BME280;47967;51.756;10.174;2022-07-23T15:48:29;100020.16;;;25.71;40.37
62011;BME280;47967;51.756;10.174;2022-07-23T15:52:33;100026.81;;;25.89;40.03
62011;BME280;47967;51.756;10.174;2022-07-23T15:56:39;100026.91;;;25.06;41.70
62011;BME280;47967;51.756;10.174;2022-07-23T16:00:43;100031.13;;;25.28;41.25
62011;BME280;47967;51.756;10.174;2022-07-23T16:04:47;100022.47;;;25.35;40.99
62011;BME280;47967;51.756;10.174;2022-07-23T16:08:52;100009.56;;;25.79;41.06
62011;BME280;47967;51.756;10.174;2022-07-23T16:13:01;100030.66;;;25.69;40.95
62011;BME280;47967;51.756;10.174;2022-07-23T16:17:04;100018.25;;;25.67;41.21
62011;BME280;47967;51.756;10.174;2022-07-23T16:21:07;100025.72;;;25.91;40.81
62011;BME280;47967;51.756;10.174;2022-07-23T16:25:17;100012.84;;;26.00;41.20
62011;BME280;47967;51.756;10.174;2022-07-23T16:29:20;100017.28;;;26.01;40.99
62011;BME280;47967;51.756;10.174;2022-07-23T16:33:22;100017.47;;;26.29;40.68
62011;BME280;47967;51.756;10.174;2022-07-23T16:37:25;100018.31;;;26.29;40.33
62011;BME280;47967;51.756;10.174;2022-07-23T16:41:28;100017.31;;;26.39;39.78
62011;BME280;47967;51.756;10.174;2022-07-23T16:45:31;100016.09;;;26.07;40.17
62011;BME280;47967;51.756;10.174;2022-07-23T16:49:34;100015.97;;;25.74;40.91
62011;BME280;47967;51.756;10.174;2022-07-23T16:53:37;100020.09;;;26.20;40.46
62011;BME280;47967;51.756;10.174;2022-07-23T16:57:41;100012.63;;;25.96;40.73
62011;BME280;47967;51.756;10.174;2022-07-23T17:01:44;100026.56;;;25.67;41.09
62011;BME280;47967;51.756;10.174;2022-07-23T17:05:46;100034.41;;;25.30;41.51
62011;BME280;47967;51.756;10.174;2022-07-23T17:09:49;100027.53;;;25.28;41.62
62011;BME280;47967;51.756;10.174;2022-07-23T17:13:53;100023.44;;;25.73;41.35
62011;BME280;47967;51.756;10.174;2022-07-23T17:17:55;100036.31;;;25.59;41.08
62011;BME280;47967;51.756;10.174;2022-07-23T17:21:58;100037.25;;;25.73;40.94
62011;BME280;47967;51.756;10.174;2022-07-23T17:26:01;100032.53;;;25.74;41.12
62011;BME280;47967;51.756;10.174;2022-07-23T17:30:06;100034.25;;;25.94;40.83
62011;BME280;47967;51.756;10.174;2022-07-23T17:34:09;100035.03;;;25.76;40.51
62011;BME280;47967;51.756;10.174;2022-07-23T17:38:11;100044.53;;;25.40;41.47
62011;BME280;47967;51.756;10.174;2022-07-23T17:42:14;100051.47;;;25.37;41.24
62011;BME280;47967;51.756;10.174;2022-07-23T17:46:18;100044.53;;;25.40;41.80
62011;BME280;47967;51.756;10.174;2022-07-23T17:50:20;100045.75;;;25.29;42.10
62011;BME280;47967;51.756;10.174;2022-07-23T17:54:23;100054.91;;;24.94;42.64
62011;BME280;47967;51.756;10.174;2022-07-23T17:58:27;100055.63;;;25.05;42.66
62011;BME280;47967;51.756;10.174;2022-07-23T18:02:30;100055.00;;;24.79;43.01
62011;BME280;47967;51.756;10.174;2022-07-23T18:06:33;100073.81;;;24.77;43.06
62011;BME280;47967;51.756;10.174;2022-07-23T18:10:36;100073.31;;;24.20;44.02
62011;BME280;47967;51.756;10.174;2022-07-23T18:14:38;100080.13;;;23.67;45.42
62011;BME280;47967;51.756;10.174;2022-07-23T18:18:42;100079.63;;;23.03;46.37
62011;BME280;47967;51.756;10.174;2022-07-23T18:22:45;100075.75;;;22.58;47.42
62011;BME280;47967;51.756;10.174;2022-07-23T18:26:49;100077.03;;;22.29;48.41
62011;BME280;47967;51.756;10.174;2022-07-23T18:30:51;100076.13;;;22.08;49.29
62011;BME280;47967;51.756;10.174;2022-07-23T18:34:55;100082.97;;;21.90;49.44
62011;BME280;47967;51.756;10.174;2022-07-23T18:38:58;100077.88;;;21.66;49.83
62011;BME280;47967;51.756;10.174;2022-07-23T18:43:04;100088.50;;;21.52;50.14
62011;BME280;47967;51.756;10.174;2022-07-23T18:47:07;100092.97;;;21.26;51.06
62011;BME280;47967;51.756;10.174;2022-07-23T18:51:11;100102.09;;;20.99;51.66
62011;BME280;47967;51.756;10.174;2022-07-23T18:55:14;100106.88;;;20.82;52.34
62011;BME280;47967;51.756;10.174;2022-07-23T18:59:16;100107.44;;;20.56;52.84
62011;BME280;47967;51.756;10.174;2022-07-23T19:03:24;100116.31;;;20.41;52.86
62011;BME280;47967;51.756;10.174;2022-07-23T19:11:30;100122.97;;;20.01;54.14
62011;BME280;47967;51.756;10.174;2022-07-23T19:15:33;100124.31;;;19.81;55.07
62011;BME280;47967;51.756;10.174;2022-07-23T19:19:36;100126.25;;;19.64;55.40
62011;BME280;47967;51.756;10.174;2022-07-23T19:23:40;100126.38;;;19.52;55.83
62011;BME280;47967;51.756;10.174;2022-07-23T19:27:43;100132.34;;;19.32;56.68
62011;BME280;47967;51.756;10.174;2022-07-23T19:31:46;100147.94;;;19.14;57.37
62011;BME280;47967;51.756;10.174;2022-07-23T19:35:48;100152.22;;;18.93;58.02
62011;BME280;47967;51.756;10.174;2022-07-23T19:39:52;100160.16;;;18.66;59.15
62011;BME280;47967;51.756;10.174;2022-07-23T19:43:55;100162.56;;;18.50;59.71
62011;BME280;47967;51.756;10.174;2022-07-23T19:47:57;100166.69;;;18.36;60.16
62011;BME280;47967;51.756;10.174;2022-07-23T19:52:00;100164.94;;;18.18;60.66
62011;BME280;47967;51.756;10.174;2022-07-23T19:56:05;100166.38;;;18.08;60.98
62011;BME280;47967;51.756;10.174;2022-07-23T20:00:09;100169.69;;;18.11;61.15
62011;BME280;47967;51.756;10.174;2022-07-23T20:04:12;100173.94;;;18.18;60.87
62011;BME280;47967;51.756;10.174;2022-07-23T20:08:15;100166.63;;;18.07;60.84
62011;BME280;47967;51.756;10.174;2022-07-23T20:12:20;100177.31;;;17.97;61.78
62011;BME280;47967;51.756;10.174;2022-07-23T20:16:23;100169.09;;;17.73;62.57
62011;BME280;47967;51.756;10.174;2022-07-23T20:20:26;100176.56;;;17.54;63.19
62011;BME280;47967;51.756;10.174;2022-07-23T20:24:28;100172.88;;;17.36;63.59
62011;BME280;47967;51.756;10.174;2022-07-23T20:28:32;100177.66;;;16.99;64.33
62011;BME280;47967;51.756;10.174;2022-07-23T20:32:35;100190.31;;;16.93;64.90
62011;BME280;47967;51.756;10.174;2022-07-23T20:36:38;100190.84;;;16.83;64.94
62011;BME280;47967;51.756;10.174;2022-07-23T20:40:41;100190.44;;;16.68;65.41
62011;BME280;47967;51.756;10.174;2022-07-23T20:44:48;100192.47;;;16.72;66.29
62011;BME280;47967;51.756;10.174;2022-07-23T20:48:51;100196.84;;;16.73;66.41
62011;BME280;47967;51.756;10.174;2022-07-23T20:52:54;100197.97;;;16.35;66.27
62011;BME280;47967;51.756;10.174;2022-07-23T20:56:57;100203.09;;;16.06;67.46
62011;BME280;47967;51.756;10.174;2022-07-23T21:01:01;100212.91;;;15.89;68.12
62011;BME280;47967;51.756;10.174;2022-07-23T21:05:05;100216.00;;;15.67;69.02
62011;BME280;47967;51.756;10.174;2022-07-23T21:09:08;100213.28;;;15.42;69.59
62011;BME280;47967;51.756;10.174;2022-07-23T21:13:10;100222.09;;;15.37;70.59
62011;BME280;47967;51.756;10.174;2022-07-23T21:17:18;100224.22;;;15.35;70.68